createdAt,value
2022-12-24T00:01:33.182Z,6.47
2022-12-24T00:03:59.795Z,6.07
2022-12-24T00:06:26.409Z,4.70
2022-12-24T00:08:53.087Z,5.57
2022-12-24T00:11:20.022Z,4.50
2022-12-24T00:13:46.808Z,4.60
2022-12-24T00:16:13.523Z,4.30
2022-12-24T00:18:45.550Z,4.03
2022-12-24T00:21:13.082Z,6.57
2022-12-24T00:23:40.318Z,5.17
2022-12-24T00:26:06.917Z,6.00
2022-12-24T00:28:33.510Z,5.23
2022-12-24T00:31:00.172Z,5.03
2022-12-24T00:33:26.803Z,5.93
2022-12-24T00:35:53.552Z,6.30
2022-12-24T00:38:20.318Z,5.03
2022-12-24T00:40:47.287Z,4.47
2022-12-24T00:43:13.893Z,5.10
2022-12-24T00:45:40.490Z,8.67
2022-12-24T00:48:07.092Z,5.73
2022-12-24T00:50:33.707Z,6.40
2022-12-24T00:53:00.290Z,3.50
2022-12-24T00:55:26.919Z,3.97
2022-12-24T00:57:53.567Z,4.77
2022-12-24T01:00:20.315Z,6.57
2022-12-24T01:02:47.172Z,7.90
2022-12-24T01:05:14.003Z,5.43
2022-12-24T01:07:44.459Z,6.00
2022-12-24T01:10:12.414Z,9.07
2022-12-24T01:12:39.065Z,10.83
2022-12-24T01:15:06.129Z,5.27
2022-12-24T01:17:33.535Z,4.87
2022-12-24T01:20:00.186Z,5.97
2022-12-24T01:22:26.779Z,7.37
2022-12-24T01:24:53.382Z,6.90
2022-12-24T01:27:19.988Z,5.57
2022-12-24T01:29:46.596Z,10.90
2022-12-24T01:32:13.196Z,6.63
2022-12-24T01:34:39.814Z,5.33
2022-12-24T01:37:06.406Z,5.97
2022-12-24T01:39:33.056Z,5.83
2022-12-24T01:42:18.364Z,4.97
2022-12-24T01:44:45.274Z,7.67
2022-12-24T01:47:23.852Z,4.57
2022-12-24T01:49:53.931Z,2.67
2022-12-24T01:52:22.521Z,5.40
2022-12-24T01:55:00.166Z,5.13
2022-12-24T01:57:51.600Z,8.13
2022-12-24T02:00:18.225Z,6.47
2022-12-24T02:02:46.493Z,6.37
2022-12-24T02:05:25.189Z,6.83
2022-12-24T02:07:51.800Z,5.73
2022-12-24T02:10:18.445Z,6.90
2022-12-24T02:12:45.358Z,6.37
2022-12-24T02:15:13.351Z,9.30
2022-12-24T02:18:03.868Z,6.37
2022-12-24T02:20:36.535Z,5.53
2022-12-24T02:23:18.123Z,5.10
2022-12-24T02:26:11.164Z,4.97
2022-12-24T02:28:43.765Z,5.83
2022-12-24T02:31:20.043Z,3.50
2022-12-24T02:33:54.630Z,4.60
2022-12-24T02:36:25.697Z,6.33
2022-12-24T02:38:56.708Z,4.27
2022-12-24T02:41:26.167Z,7.33
2022-12-24T02:43:53.332Z,11.20
2022-12-24T02:46:22.535Z,4.60
2022-12-24T02:48:49.337Z,4.97
2022-12-24T02:51:15.955Z,7.03
2022-12-24T02:53:42.533Z,4.77
2022-12-24T02:56:20.020Z,6.03
2022-12-24T02:58:55.439Z,5.13
2022-12-24T03:01:57.307Z,4.93
2022-12-24T03:04:42.072Z,5.40
2022-12-24T03:07:29.612Z,5.57
2022-12-24T03:10:30.176Z,5.67
2022-12-24T03:12:59.880Z,2.90
2022-12-24T03:15:26.678Z,5.27
2022-12-24T03:17:54.305Z,5.60
2022-12-24T03:20:34.045Z,5.60
2022-12-24T03:23:00.777Z,4.40
2022-12-24T03:25:27.370Z,3.80
2022-12-24T03:27:54.965Z,6.33
2022-12-24T03:30:21.584Z,5.93
2022-12-24T03:32:48.289Z,3.67
2022-12-24T03:35:14.979Z,3.43
2022-12-24T03:37:41.601Z,5.73
2022-12-24T03:40:08.668Z,5.03
2022-12-24T03:42:35.292Z,3.23
2022-12-24T03:45:01.884Z,4.33
2022-12-24T03:47:28.481Z,3.50
2022-12-24T03:49:55.084Z,4.13
2022-12-24T03:52:21.705Z,3.53
2022-12-24T03:54:48.285Z,4.50
2022-12-24T03:57:14.890Z,4.17
2022-12-24T03:59:41.519Z,2.70
2022-12-24T04:02:08.219Z,3.23
2022-12-24T04:04:36.812Z,4.13
2022-12-24T04:07:04.328Z,5.03
2022-12-24T04:09:30.964Z,3.97
2022-12-24T04:11:57.585Z,2.63
2022-12-24T04:14:24.216Z,4.07
2022-12-24T04:16:50.860Z,3.67
2022-12-24T04:19:17.577Z,3.77
2022-12-24T04:21:44.191Z,3.93
2022-12-24T04:24:10.812Z,4.93
2022-12-24T04:26:37.414Z,3.93
2022-12-24T04:29:04.033Z,4.53
2022-12-24T04:31:30.655Z,3.47
2022-12-24T04:33:57.261Z,4.47
2022-12-24T04:36:23.850Z,5.43
2022-12-24T04:38:50.484Z,4.10
2022-12-24T04:41:23.738Z,4.60
2022-12-24T04:43:51.870Z,3.27
2022-12-24T04:46:20.747Z,2.43
2022-12-24T04:48:48.685Z,3.77
2022-12-24T04:51:15.301Z,4.77
2022-12-24T04:53:42.032Z,5.20
2022-12-24T04:56:19.593Z,3.27
2022-12-24T04:58:46.206Z,4.33
2022-12-24T05:01:14.251Z,4.90
2022-12-24T05:03:40.997Z,5.97
2022-12-24T05:06:09.334Z,4.77
2022-12-24T05:08:35.938Z,4.23
2022-12-24T05:11:04.068Z,3.97
2022-12-24T05:13:39.104Z,4.13
2022-12-24T05:16:11.109Z,3.90
2022-12-24T05:18:37.835Z,3.23
2022-12-24T05:21:08.949Z,3.53
2022-12-24T05:23:54.098Z,3.10
2022-12-24T05:26:33.277Z,4.43
2022-12-24T05:29:00.627Z,7.33
2022-12-24T05:31:28.203Z,3.50
2022-12-24T05:33:55.679Z,4.87
2022-12-24T05:36:22.736Z,4.53
2022-12-24T05:38:49.595Z,4.17
2022-12-24T05:41:16.238Z,3.83
2022-12-24T05:43:42.837Z,3.10
2022-12-24T05:46:10.872Z,2.03
2022-12-24T05:48:37.524Z,2.87
2022-12-24T05:51:08.273Z,3.33
2022-12-24T05:53:35.140Z,3.40
2022-12-24T05:56:09.443Z,4.83
2022-12-24T05:58:36.259Z,3.27
2022-12-24T06:01:03.160Z,5.77
2022-12-24T06:03:30.394Z,4.50
2022-12-24T06:06:04.720Z,3.83
2022-12-24T06:08:31.487Z,3.00
2022-12-24T06:10:58.990Z,4.87
2022-12-24T06:13:25.706Z,3.03
2022-12-24T06:15:55.605Z,5.23
2022-12-24T06:18:22.361Z,5.20
2022-12-24T06:20:53.106Z,5.20
2022-12-24T06:23:19.807Z,3.57
2022-12-24T06:25:47.020Z,4.80
2022-12-24T06:28:13.759Z,4.10
2022-12-24T06:30:40.547Z,5.03
2022-12-24T06:33:07.141Z,2.90
2022-12-24T06:35:34.095Z,4.27
2022-12-24T06:38:00.704Z,1.87
2022-12-24T06:40:27.415Z,4.53
2022-12-24T06:42:54.010Z,4.97
2022-12-24T06:45:20.665Z,5.03
2022-12-24T06:47:47.276Z,3.53
2022-12-24T06:50:13.934Z,4.03
2022-12-24T06:52:40.577Z,4.03
2022-12-24T06:55:07.764Z,3.90
2022-12-24T06:57:34.370Z,4.00
2022-12-24T07:00:00.987Z,3.60
2022-12-24T07:02:27.638Z,4.27
2022-12-24T07:04:54.309Z,3.43
2022-12-24T07:07:20.919Z,5.37
2022-12-24T07:09:47.553Z,4.57
2022-12-24T07:12:14.203Z,4.30
2022-12-24T07:14:40.815Z,2.87
2022-12-24T07:17:07.487Z,4.30
2022-12-24T07:19:34.302Z,6.17
2022-12-24T07:22:00.916Z,3.30
2022-12-24T07:24:27.556Z,2.57
2022-12-24T07:26:54.148Z,4.13
2022-12-24T07:29:20.901Z,8.57
2022-12-24T07:31:47.554Z,3.20
2022-12-24T07:34:14.248Z,3.80
2022-12-24T07:36:40.864Z,4.17
2022-12-24T07:39:07.457Z,4.07
2022-12-24T07:41:39.793Z,4.67
2022-12-24T07:44:11.804Z,5.63
2022-12-24T07:46:38.464Z,3.83
2022-12-24T07:49:05.111Z,3.73
2022-12-24T07:51:31.726Z,2.73
2022-12-24T07:53:58.379Z,4.10
2022-12-24T07:56:24.990Z,3.87
2022-12-24T07:58:51.724Z,10.40
2022-12-24T08:01:18.677Z,7.97
2022-12-24T08:03:45.563Z,14.30
2022-12-24T08:06:12.288Z,6.63
2022-12-24T08:08:38.896Z,8.53
2022-12-24T08:11:06.263Z,7.40
2022-12-24T08:13:32.999Z,3.07
2022-12-24T08:15:59.730Z,6.67
2022-12-24T08:18:26.423Z,3.57
2022-12-24T08:20:53.035Z,3.23
2022-12-24T08:23:19.689Z,3.83
2022-12-24T08:25:47.203Z,4.60
2022-12-24T08:28:14.537Z,4.90
2022-12-24T08:30:41.144Z,4.47
2022-12-24T08:33:07.838Z,6.57
2022-12-24T08:35:34.559Z,4.33
2022-12-24T08:38:01.169Z,4.60
2022-12-24T08:40:27.780Z,3.47
2022-12-24T08:42:54.448Z,2.73
2022-12-24T08:45:21.174Z,6.43
2022-12-24T08:47:47.765Z,4.27
2022-12-24T08:50:14.555Z,5.23
2022-12-24T08:52:41.161Z,5.07
2022-12-24T08:55:08.307Z,4.73
2022-12-24T08:57:37.768Z,3.43
2022-12-24T09:00:07.775Z,15.23
2022-12-24T09:02:34.623Z,8.43
2022-12-24T09:05:01.383Z,10.83
2022-12-24T09:07:27.982Z,7.73
2022-12-24T09:09:54.608Z,8.20
2022-12-24T09:12:21.208Z,6.63
2022-12-24T09:14:47.870Z,10.53
2022-12-24T09:17:14.472Z,7.73
2022-12-24T09:19:41.074Z,8.60
2022-12-24T09:22:07.662Z,6.00
2022-12-24T09:24:36.063Z,7.80
2022-12-24T09:27:03.890Z,9.03
2022-12-24T09:29:31.253Z,5.77
2022-12-24T09:31:57.991Z,10.17
2022-12-24T09:34:30.180Z,11.03
2022-12-24T09:36:57.408Z,10.90
2022-12-24T09:39:23.990Z,11.47
2022-12-24T09:42:03.841Z,5.80
2022-12-24T09:44:58.928Z,5.47
2022-12-24T09:47:33.444Z,7.20
2022-12-24T09:50:01.216Z,6.60
2022-12-24T09:52:36.443Z,14.93
2022-12-24T09:55:12.214Z,8.53
2022-12-24T09:57:39.468Z,67.93
2022-12-24T10:00:11.691Z,31.30
2022-12-24T10:02:38.385Z,22.10
2022-12-24T10:05:06.536Z,19.43
2022-12-24T10:07:41.031Z,24.23
2022-12-24T10:10:22.816Z,22.53
2022-12-24T10:13:07.583Z,19.63
2022-12-24T10:15:38.455Z,18.07
2022-12-24T10:18:48.824Z,26.57
2022-12-24T10:21:31.008Z,23.50
2022-12-24T10:24:24.514Z,18.33
2022-12-24T10:27:08.298Z,19.67
2022-12-24T10:29:36.435Z,11.20
2022-12-24T10:32:09.117Z,14.90
2022-12-24T10:34:41.042Z,14.70
2022-12-24T10:37:09.576Z,17.30
2022-12-24T10:39:36.163Z,21.87
2022-12-24T10:42:02.758Z,17.83
2022-12-24T10:44:31.741Z,11.37
2022-12-24T10:46:59.407Z,10.30
2022-12-24T10:49:32.114Z,12.60
2022-12-24T10:52:03.010Z,12.93
2022-12-24T10:54:31.337Z,13.27
2022-12-24T10:56:59.307Z,17.03
2022-12-24T10:59:29.688Z,14.53
2022-12-24T11:01:57.714Z,14.13
2022-12-24T11:04:29.453Z,15.43
2022-12-24T11:06:56.982Z,14.90
2022-12-24T11:09:34.798Z,15.00
2022-12-24T11:12:08.674Z,13.90
2022-12-24T11:14:37.350Z,12.53
2022-12-24T11:17:03.981Z,16.70
2022-12-24T11:19:35.591Z,9.77
2022-12-24T11:22:37.824Z,9.93
2022-12-24T11:25:05.902Z,10.20
2022-12-24T11:27:42.160Z,14.40
2022-12-24T11:30:23.777Z,13.13
2022-12-24T11:33:16.628Z,9.70
2022-12-24T11:35:51.618Z,12.07
2022-12-24T11:38:21.113Z,10.77
2022-12-24T11:40:58.761Z,10.40
2022-12-24T11:43:25.367Z,10.77
2022-12-24T11:45:53.080Z,9.50
2022-12-24T11:48:29.911Z,8.27
2022-12-24T11:51:00.979Z,11.17
2022-12-24T11:53:50.432Z,8.63
2022-12-24T11:56:29.001Z,12.33
2022-12-24T11:58:58.873Z,13.20
2022-12-24T12:01:33.242Z,12.30
2022-12-24T12:04:02.328Z,13.33
2022-12-24T12:06:33.006Z,11.10
2022-12-24T12:09:21.308Z,10.07
2022-12-24T12:11:56.934Z,14.00
2022-12-24T12:14:31.783Z,18.13
2022-12-24T12:17:06.653Z,9.80
2022-12-24T12:19:43.321Z,11.10
2022-12-24T12:22:17.397Z,12.77
2022-12-24T12:24:46.190Z,13.37
2022-12-24T12:27:35.983Z,11.87
2022-12-24T12:30:05.534Z,11.13
2022-12-24T12:32:41.952Z,10.97
2022-12-24T12:35:32.006Z,12.07
2022-12-24T12:38:04.234Z,13.77
2022-12-24T12:40:40.921Z,9.00
2022-12-24T12:43:23.009Z,13.80
2022-12-24T12:45:54.973Z,11.57
2022-12-24T12:48:25.342Z,12.17
2022-12-24T12:51:15.700Z,14.77
2022-12-24T12:53:55.247Z,10.67
2022-12-24T12:56:31.383Z,11.07
2022-12-24T12:59:14.543Z,15.53
2022-12-24T13:02:17.102Z,14.30
2022-12-24T13:05:17.138Z,11.27
2022-12-24T13:08:03.110Z,11.07
2022-12-24T13:10:35.968Z,14.63
2022-12-24T13:13:33.432Z,8.87
2022-12-24T13:16:30.291Z,14.40
2022-12-24T13:19:17.999Z,9.57
2022-12-24T13:21:45.470Z,12.57
2022-12-24T13:24:16.562Z,8.77
2022-12-24T13:26:43.218Z,13.97
2022-12-24T13:29:35.570Z,10.63
2022-12-24T13:32:20.366Z,12.33
2022-12-24T13:34:50.420Z,11.13
2022-12-24T13:37:32.708Z,10.50
2022-12-24T13:40:08.482Z,12.50
2022-12-24T13:43:01.250Z,10.73
2022-12-24T13:45:31.107Z,6.27
2022-12-24T13:48:02.150Z,12.10
2022-12-24T13:50:35.654Z,8.60
2022-12-24T13:53:02.250Z,8.37
2022-12-24T13:55:28.866Z,12.93
2022-12-24T13:58:02.955Z,13.67
2022-12-24T14:00:32.478Z,12.33
2022-12-24T14:03:14.213Z,7.83
2022-12-24T14:05:47.225Z,15.37
2022-12-24T14:08:23.854Z,10.07
2022-12-24T14:10:58.847Z,12.20
2022-12-24T14:13:40.726Z,11.07
2022-12-24T14:16:23.547Z,12.73
2022-12-24T14:19:01.132Z,36.10
2022-12-24T14:21:36.549Z,30.57
2022-12-24T14:24:05.299Z,24.67
2022-12-24T14:26:35.287Z,22.03
2022-12-24T14:29:07.810Z,19.77
2022-12-24T14:31:34.455Z,16.67
2022-12-24T14:34:12.988Z,18.13
2022-12-24T14:36:40.059Z,19.37
2022-12-24T14:39:07.202Z,18.27
2022-12-24T14:42:21.545Z,17.73
2022-12-24T14:45:12.937Z,22.40
2022-12-24T14:47:48.579Z,14.87
2022-12-24T14:50:31.226Z,17.20
2022-12-24T14:53:18.649Z,17.07
2022-12-24T14:55:47.048Z,16.13
2022-12-24T14:58:32.784Z,21.10
2022-12-24T15:01:17.117Z,18.73
2022-12-24T15:03:43.908Z,15.80
2022-12-24T15:06:11.956Z,16.93
2022-12-24T15:08:40.403Z,19.53
2022-12-24T15:11:08.443Z,28.97
2022-12-24T15:13:40.161Z,25.70
2022-12-24T15:16:09.943Z,20.53
2022-12-24T15:18:38.830Z,17.97
2022-12-24T15:21:05.982Z,28.40
2022-12-24T15:23:34.672Z,31.47
2022-12-24T15:26:21.575Z,23.17
2022-12-24T15:28:48.222Z,23.47
2022-12-24T15:31:22.343Z,24.70
2022-12-24T15:33:50.837Z,22.53
2022-12-24T15:39:17.410Z,17.87
2022-12-24T15:42:03.500Z,24.93
2022-12-24T15:44:35.778Z,27.40
2022-12-24T15:47:03.112Z,27.80
2022-12-24T15:49:31.624Z,30.33
2022-12-24T15:52:05.672Z,28.73
2022-12-24T15:54:32.291Z,27.97
2022-12-24T15:56:58.895Z,22.10
2022-12-24T15:59:32.186Z,23.30
2022-12-24T16:02:22.668Z,30.07
2022-12-24T16:04:49.485Z,28.17
2022-12-24T16:07:26.051Z,32.03
2022-12-24T16:09:52.674Z,41.70
2022-12-24T16:12:21.847Z,32.50
2022-12-24T16:14:50.788Z,31.57
2022-12-24T16:17:24.792Z,24.37
2022-12-24T16:19:53.129Z,30.67
2022-12-24T16:22:32.841Z,24.87
2022-12-24T16:25:00.009Z,23.83
2022-12-24T16:27:26.706Z,22.03
2022-12-24T16:29:53.481Z,20.90
2022-12-24T16:32:31.391Z,25.93
2022-12-24T16:34:58.304Z,26.27
2022-12-24T16:37:24.987Z,21.30
2022-12-24T16:39:52.813Z,28.70
2022-12-24T16:42:38.184Z,27.33
2022-12-24T16:45:05.360Z,29.37
2022-12-24T16:47:37.261Z,23.93
2022-12-24T16:50:11.281Z,24.93
2022-12-24T16:52:37.876Z,26.30
2022-12-24T16:55:04.780Z,31.47
2022-12-24T16:57:33.199Z,29.80
2022-12-24T16:59:59.884Z,31.47
2022-12-24T17:02:26.758Z,43.33
2022-12-24T17:04:53.415Z,25.50
2022-12-24T17:07:20.325Z,23.77
2022-12-24T17:09:46.925Z,23.10
2022-12-24T17:12:14.100Z,20.00
2022-12-24T17:14:40.807Z,21.67
2022-12-24T17:17:07.442Z,37.53
2022-12-24T17:19:34.051Z,25.60
2022-12-24T17:22:00.636Z,23.67
2022-12-24T17:24:27.240Z,22.60
2022-12-24T17:26:53.826Z,31.77
2022-12-24T17:29:20.431Z,39.93
2022-12-24T17:31:47.009Z,34.23
2022-12-24T17:34:13.608Z,31.53
2022-12-24T17:36:40.286Z,29.23
2022-12-24T17:39:06.936Z,33.87
2022-12-24T17:41:33.569Z,33.30
2022-12-24T17:44:00.228Z,32.10
2022-12-24T17:46:26.862Z,27.20
2022-12-24T17:48:53.564Z,26.40
2022-12-24T17:51:21.386Z,26.87
2022-12-24T17:53:48.189Z,32.33
2022-12-24T17:56:15.427Z,30.57
2022-12-24T17:58:42.937Z,26.00
2022-12-24T18:01:13.623Z,20.37
2022-12-24T18:03:40.341Z,21.30
2022-12-24T18:06:08.147Z,19.17
2022-12-24T18:08:34.939Z,25.30
2022-12-24T18:11:13.670Z,25.10
2022-12-24T18:13:40.570Z,24.43
2022-12-24T18:16:19.924Z,22.53
2022-12-24T18:18:46.651Z,18.80
2022-12-24T18:21:13.819Z,19.20
2022-12-24T18:23:43.971Z,23.40
2022-12-24T18:26:10.686Z,22.10
2022-12-24T18:28:37.287Z,18.83
2022-12-24T18:31:05.791Z,22.20
2022-12-24T18:33:32.779Z,28.03
2022-12-24T18:35:59.440Z,22.40
2022-12-24T18:38:26.048Z,30.17
2022-12-24T18:40:52.655Z,28.23
2022-12-24T18:43:19.265Z,23.73
2022-12-24T18:45:46.160Z,19.50
2022-12-24T18:48:12.990Z,23.23
2022-12-24T18:50:40.216Z,22.10
2022-12-24T18:53:07.249Z,19.37
2022-12-24T18:55:37.608Z,21.30
2022-12-24T18:58:04.261Z,32.53
2022-12-24T19:00:30.891Z,21.00
2022-12-24T19:02:57.549Z,24.23
2022-12-24T19:05:24.211Z,19.93
2022-12-24T19:07:50.829Z,23.87
2022-12-24T19:10:17.473Z,22.33
2022-12-24T19:12:44.087Z,22.73
2022-12-24T19:15:10.948Z,18.70
2022-12-24T19:17:37.545Z,17.60
2022-12-24T19:20:04.585Z,23.83
2022-12-24T19:22:31.171Z,16.87
2022-12-24T19:24:57.767Z,18.63
2022-12-24T19:27:24.382Z,21.87
2022-12-24T19:29:51.059Z,22.03
2022-12-24T19:32:17.742Z,16.27
2022-12-24T19:34:44.327Z,16.47
2022-12-24T19:37:11.231Z,18.63
2022-12-24T19:39:37.826Z,16.27
2022-12-24T19:42:04.534Z,16.47
2022-12-24T19:44:31.139Z,23.33
2022-12-24T19:46:57.757Z,17.70
2022-12-24T19:49:24.346Z,19.17
2022-12-24T19:51:50.956Z,16.63
2022-12-24T19:54:19.298Z,16.07
2022-12-24T19:56:46.205Z,19.07
2022-12-24T19:59:12.809Z,20.67
2022-12-24T20:01:39.737Z,18.50
2022-12-24T20:04:06.574Z,20.47
2022-12-24T20:06:34.270Z,17.67
2022-12-24T20:09:05.448Z,17.00
2022-12-24T20:11:32.205Z,19.17
2022-12-24T20:13:59.723Z,24.67
2022-12-24T20:16:26.639Z,24.13
2022-12-24T20:19:11.941Z,17.90
2022-12-24T20:21:38.551Z,18.53
2022-12-24T20:24:06.561Z,17.97
2022-12-24T20:26:33.246Z,18.93
2022-12-24T20:29:03.675Z,23.97
2022-12-24T20:31:30.396Z,20.87
2022-12-24T20:33:57.775Z,24.80
2022-12-24T20:36:24.511Z,22.23
2022-12-24T20:38:51.234Z,18.60
2022-12-24T20:41:18.927Z,22.40
2022-12-24T20:43:48.522Z,20.87
2022-12-24T20:46:16.472Z,21.20
2022-12-24T20:48:43.202Z,18.80
2022-12-24T20:51:11.473Z,19.87
2022-12-24T20:53:39.161Z,18.27
2022-12-24T20:56:06.118Z,14.87
2022-12-24T20:58:32.714Z,19.00
2022-12-24T21:00:59.351Z,19.90
2022-12-24T21:03:26.099Z,21.03
2022-12-24T21:05:53.109Z,16.73
2022-12-24T21:08:19.746Z,18.53
2022-12-24T21:10:46.434Z,22.23
2022-12-24T21:13:13.025Z,19.37
2022-12-24T21:15:39.932Z,17.57
2022-12-24T21:18:11.617Z,17.17
2022-12-24T21:20:41.877Z,19.37
2022-12-24T21:23:09.237Z,19.67
2022-12-24T21:25:35.956Z,17.63
2022-12-24T21:28:02.622Z,14.17
2022-12-24T21:30:29.330Z,20.27
2022-12-24T21:32:56.007Z,16.90
2022-12-24T21:35:22.611Z,17.83
2022-12-24T21:37:49.246Z,20.80
2022-12-24T21:40:15.833Z,19.40
2022-12-24T21:42:42.446Z,15.00
2022-12-24T21:45:09.681Z,13.23
2022-12-24T21:47:38.070Z,13.47
2022-12-24T21:50:26.834Z,14.67
2022-12-24T21:53:18.492Z,16.20
2022-12-24T21:55:45.117Z,19.37
2022-12-24T21:58:11.772Z,18.07
2022-12-24T22:00:38.356Z,14.73
2022-12-24T22:03:05.084Z,12.43
2022-12-24T22:05:32.303Z,20.70
2022-12-24T22:08:17.485Z,16.30
2022-12-24T22:11:02.905Z,16.47
2022-12-24T22:13:30.091Z,19.20
2022-12-24T22:15:56.790Z,13.63
2022-12-24T22:18:25.094Z,13.20
2022-12-24T22:20:51.794Z,17.20
2022-12-24T22:23:18.475Z,13.90
2022-12-24T22:25:45.641Z,24.20
2022-12-24T22:28:12.313Z,18.67
2022-12-24T22:30:42.003Z,20.97
2022-12-24T22:33:08.929Z,16.80
2022-12-24T22:35:39.321Z,14.67
2022-12-24T22:38:07.423Z,15.73
2022-12-24T22:40:34.009Z,16.73
2022-12-24T22:43:00.641Z,19.50
2022-12-24T22:45:27.249Z,14.27
2022-12-24T22:47:53.857Z,18.53
2022-12-24T22:50:20.506Z,15.47
2022-12-24T22:52:47.116Z,14.80
2022-12-24T22:55:13.699Z,15.07
2022-12-24T22:57:40.295Z,21.33
2022-12-24T23:00:37.022Z,13.53
2022-12-24T23:03:04.648Z,14.63
2022-12-24T23:05:31.513Z,15.30
2022-12-24T23:07:58.203Z,20.13
2022-12-24T23:10:24.817Z,10.30
2022-12-24T23:13:14.898Z,13.10
2022-12-24T23:15:41.902Z,11.73
2022-12-24T23:18:08.638Z,12.47
2022-12-24T23:20:42.979Z,11.20
2022-12-24T23:23:09.593Z,11.37
2022-12-24T23:25:36.181Z,10.10
2022-12-24T23:28:02.785Z,11.40
2022-12-24T23:30:29.375Z,10.53
2022-12-24T23:32:55.989Z,17.83
2022-12-24T23:35:22.591Z,10.67
2022-12-24T23:37:49.191Z,10.17
2022-12-24T23:40:15.884Z,10.20
2022-12-24T23:42:42.527Z,11.13
2022-12-24T23:45:09.515Z,13.27
2022-12-24T23:47:36.116Z,13.87
2022-12-24T23:50:03.148Z,11.00
2022-12-24T23:52:29.766Z,9.87
2022-12-24T23:54:56.391Z,11.23
2022-12-24T23:57:22.985Z,9.70
2022-12-24T23:59:49.616Z,11.07
